aviador You're here:

KCKV Decoded Metar

CLARKSVILLE in TN, USA
Report Time2017-04-29 16:52:00
UTC Time2017-04-29 17:46:53
Flight Rules vfr VFR
WindVRB at 03 kt
Visibility9999 m
Phenomena:N/A
Clouds:Few 041 Hf
Scattered 048 Hf
Expected CloudBase > 3,600 ft AGL from Temp-Dew spread
CeilingNone
Temp28°C (ISA +14)
Dew Point19°C (58% RH)
Heat Index29.2°C
QNH1016 hPa
Density Alt2,352 ft
Elevation541 ft
Report Wrong Elevation
Raw Report
METAR KCKV 291652Z AUTO VRB03KT 9SM FEW041 SCT048 28/19 A2999 RMK AO2
SLP150 T02780189=

Extra information for KCKV:More info

Metar Taf Metar & Taf Last 4 Metars F.Rules Stats Wind Profile Meteogram Temp Stats Airport Information Weather charts Add Link Nearby VenuesMetar ALERT Operation Metar Decoded Social comments

AIRNAV info for KCKV